BOV626 SLCB-SLLP
Flight info
| Callsign | BOV626 |
|---|---|
| Flight time | 0h 30m |
| Altitude | 28000 |
| Route | TEDOK UM793 DAKOG |
| Aircraft | B738/M-SDE2E3FGHIRWXY/LB1 |
Departure
| Time | 2026-04-30 01:41 |
|---|---|
| Airport | Jorge Wilsterman International Airport (SLCB) |
Arrival
| Time | 2026-04-30 02:12 |
|---|---|
| Airport | El Alto International Airport (SLLP) |
| Time | Latitude | Longitude | Altitude | Speed | Heading |
|---|---|---|---|---|---|
| 2026-04-30 01:24 | -17.41509 | -66.17919 | 8406 ft | 0 kts | 41° |
| 2026-04-30 01:26 | -17.41511 | -66.17922 | 8406 ft | 2 kts | 40° |
| 2026-04-30 01:26 | -17.41524 | -66.17932 | 8406 ft | 2 kts | 35° |
| 2026-04-30 01:26 | -17.41537 | -66.17941 | 8406 ft | 2 kts | 25° |
| 2026-04-30 01:27 | -17.41552 | -66.17947 | 8406 ft | 2 kts | 9° |
| 2026-04-30 01:27 | -17.41566 | -66.17948 | 8406 ft | 2 kts | 341° |
| 2026-04-30 01:27 | -17.41578 | -66.17940 | 8406 ft | 4 kts | 312° |
| 2026-04-30 01:27 | -17.41579 | -66.17940 | 8406 ft | 0 kts | 312° |
| 2026-04-30 01:30 | -17.41578 | -66.17940 | 8406 ft | 0 kts | 312° |
| 2026-04-30 01:31 | -17.41571 | -66.17948 | 8406 ft | 3 kts | 312° |
| 2026-04-30 01:31 | -17.41557 | -66.17965 | 8406 ft | 4 kts | 312° |
| 2026-04-30 01:31 | -17.41541 | -66.17984 | 8406 ft | 4 kts | 312° |
| 2026-04-30 01:32 | -17.41521 | -66.18007 | 8406 ft | 4 kts | 312° |
| 2026-04-30 01:32 | -17.41506 | -66.18024 | 8406 ft | 4 kts | 312° |
| 2026-04-30 01:32 | -17.41490 | -66.18043 | 8406 ft | 1 kts | 312° |
| 2026-04-30 01:32 | -17.41482 | -66.18052 | 8406 ft | 3 kts | 312° |
| 2026-04-30 01:33 | -17.41475 | -66.18075 | 8406 ft | 4 kts | 255° |
| 2026-04-30 01:33 | -17.41490 | -66.18091 | 8406 ft | 4 kts | 223° |
| 2026-04-30 01:33 | -17.41509 | -66.18110 | 8406 ft | 4 kts | 224° |
| 2026-04-30 01:33 | -17.41535 | -66.18136 | 8406 ft | 5 kts | 223° |
| 2026-04-30 01:34 | -17.41562 | -66.18161 | 8406 ft | 5 kts | 222° |
| 2026-04-30 01:34 | -17.41577 | -66.18176 | 8406 ft | 4 kts | 222° |
| 2026-04-30 01:34 | -17.41600 | -66.18197 | 8406 ft | 5 kts | 222° |
| 2026-04-30 01:34 | -17.41623 | -66.18233 | 8406 ft | 7 kts | 254° |
| 2026-04-30 01:35 | -17.41614 | -66.18285 | 8406 ft | 8 kts | 299° |
| 2026-04-30 01:35 | -17.41574 | -66.18336 | 8406 ft | 10 kts | 311° |
| 2026-04-30 01:35 | -17.41524 | -66.18394 | 8406 ft | 11 kts | 312° |
| 2026-04-30 01:35 | -17.41473 | -66.18453 | 8406 ft | 10 kts | 312° |
| 2026-04-30 01:36 | -17.41424 | -66.18511 | 8406 ft | 11 kts | 312° |
| 2026-04-30 01:36 | -17.41368 | -66.18577 | 8406 ft | 13 kts | 312° |
| 2026-04-30 01:36 | -17.41305 | -66.18648 | 8406 ft | 14 kts | 313° |
| 2026-04-30 01:36 | -17.41238 | -66.18725 | 8406 ft | 15 kts | 312° |
| 2026-04-30 01:37 | -17.41166 | -66.18808 | 8406 ft | 16 kts | 312° |
| 2026-04-30 01:37 | -17.41091 | -66.18895 | 8406 ft | 16 kts | 312° |
| 2026-04-30 01:37 | -17.41020 | -66.18977 | 8406 ft | 14 kts | 312° |
| 2026-04-30 01:37 | -17.40963 | -66.19037 | 8406 ft | 7 kts | 328° |
| 2026-04-30 01:38 | -17.40914 | -66.19060 | 8406 ft | 7 kts | 336° |
| 2026-04-30 01:38 | -17.40893 | -66.19080 | 8406 ft | 2 kts | 288° |
| 2026-04-30 01:38 | -17.40899 | -66.19100 | 8406 ft | 3 kts | 221° |
| 2026-04-30 01:38 | -17.40916 | -66.19099 | 8406 ft | 2 kts | 134° |
| 2026-04-30 01:39 | -17.40923 | -66.19090 | 8406 ft | 2 kts | 132° |
| 2026-04-30 01:39 | -17.40930 | -66.19083 | 8406 ft | 0 kts | 132° |
| 2026-04-30 01:40 | -17.40930 | -66.19082 | 8406 ft | 0 kts | 132° |
| 2026-04-30 01:40 | -17.40944 | -66.19067 | 8406 ft | 12 kts | 132° |
| 2026-04-30 01:40 | -17.41148 | -66.18831 | 8406 ft | 76 kts | 131° |
| 2026-04-30 01:41 | -17.41640 | -66.18261 | 8406 ft | 133 kts | 131° |
| 2026-04-30 01:41 | -17.42373 | -66.17409 | 8429 ft | 179 kts | 132° |
| 2026-04-30 01:41 | -17.43230 | -66.16399 | 8950 ft | 190 kts | 131° |
| 2026-04-30 01:41 | -17.44113 | -66.15393 | 9844 ft | 186 kts | 134° |
| 2026-04-30 01:42 | -17.45027 | -66.14387 | 10367 ft | 198 kts | 133° |
| 2026-04-30 01:42 | -17.46007 | -66.13270 | 10597 ft | 218 kts | 130° |
| 2026-04-30 01:42 | -17.47055 | -66.12026 | 10811 ft | 237 kts | 130° |
| 2026-04-30 01:42 | -17.48184 | -66.10672 | 11017 ft | 256 kts | 130° |
| 2026-04-30 01:43 | -17.49436 | -66.09318 | 11544 ft | 260 kts | 139° |
| 2026-04-30 01:43 | -17.50957 | -66.08286 | 12255 ft | 262 kts | 151° |
| 2026-04-30 01:43 | -17.52615 | -66.07479 | 12924 ft | 265 kts | 156° |
| 2026-04-30 01:43 | -17.54313 | -66.06766 | 13569 ft | 268 kts | 157° |
| 2026-04-30 01:44 | -17.56077 | -66.06037 | 14225 ft | 270 kts | 157° |
| 2026-04-30 01:44 | -17.57835 | -66.05300 | 14862 ft | 273 kts | 157° |
| 2026-04-30 01:44 | -17.59600 | -66.04566 | 15522 ft | 275 kts | 160° |
| 2026-04-30 01:44 | -17.61500 | -66.04316 | 16111 ft | 280 kts | 185° |
| 2026-04-30 01:45 | -17.63354 | -66.04906 | 16705 ft | 283 kts | 209° |
| 2026-04-30 01:45 | -17.64894 | -66.06198 | 17308 ft | 285 kts | 228° |
| 2026-04-30 01:45 | -17.65909 | -66.07987 | 17880 ft | 287 kts | 250° |
| 2026-04-30 01:45 | -17.66164 | -66.10023 | 18378 ft | 290 kts | 278° |
| 2026-04-30 01:46 | -17.65584 | -66.12068 | 18775 ft | 298 kts | 296° |
| 2026-04-30 01:46 | -17.64681 | -66.14116 | 19027 ft | 313 kts | 295° |
| 2026-04-30 01:46 | -17.63748 | -66.16234 | 19218 ft | 329 kts | 296° |
| 2026-04-30 01:46 | -17.62779 | -66.18432 | 19398 ft | 343 kts | 296° |
| 2026-04-30 01:47 | -17.61761 | -66.20741 | 19569 ft | 358 kts | 296° |
| 2026-04-30 01:47 | -17.60691 | -66.23167 | 19737 ft | 371 kts | 295° |
| 2026-04-30 01:47 | -17.59576 | -66.25692 | 19888 ft | 385 kts | 295° |
| 2026-04-30 01:47 | -17.58445 | -66.28247 | 20054 ft | 396 kts | 295° |
| 2026-04-30 01:48 | -17.57275 | -66.30900 | 20194 ft | 407 kts | 295° |
| 2026-04-30 01:48 | -17.56073 | -66.33618 | 20381 ft | 415 kts | 295° |
| 2026-04-30 01:48 | -17.54854 | -66.36372 | 20717 ft | 421 kts | 295° |
| 2026-04-30 01:48 | -17.53616 | -66.39176 | 21305 ft | 420 kts | 296° |
| 2026-04-30 01:49 | -17.52391 | -66.41941 | 22122 ft | 417 kts | 295° |
| 2026-04-30 01:49 | -17.51160 | -66.44720 | 22434 ft | 425 kts | 295° |
| 2026-04-30 01:49 | -17.49913 | -66.47554 | 22825 ft | 430 kts | 295° |
| 2026-04-30 01:49 | -17.48655 | -66.50410 | 23235 ft | 435 kts | 295° |
| 2026-04-30 01:50 | -17.47380 | -66.53302 | 23588 ft | 440 kts | 295° |
| 2026-04-30 01:50 | -17.46087 | -66.56229 | 23967 ft | 444 kts | 295° |
| 2026-04-30 01:50 | -17.44796 | -66.59151 | 24556 ft | 443 kts | 295° |
| 2026-04-30 01:50 | -17.43493 | -66.62096 | 24982 ft | 447 kts | 295° |
| 2026-04-30 01:51 | -17.42183 | -66.65055 | 25399 ft | 450 kts | 295° |
| 2026-04-30 01:51 | -17.40857 | -66.68047 | 25850 ft | 452 kts | 295° |
| 2026-04-30 01:51 | -17.39540 | -66.71018 | 26478 ft | 449 kts | 295° |
| 2026-04-30 01:51 | -17.38226 | -66.73980 | 27043 ft | 448 kts | 295° |
| 2026-04-30 01:52 | -17.36915 | -66.76935 | 27634 ft | 446 kts | 295° |
| 2026-04-30 01:52 | -17.35610 | -66.79874 | 28035 ft | 447 kts | 295° |
| 2026-04-30 01:52 | -17.33014 | -66.85718 | 28129 ft | 442 kts | 295° |
| 2026-04-30 01:53 | -17.30434 | -66.91515 | 28136 ft | 438 kts | 295° |
| 2026-04-30 01:53 | -17.27863 | -66.97290 | 28133 ft | 437 kts | 295° |
| 2026-04-30 01:54 | -17.25291 | -67.03060 | 28133 ft | 437 kts | 295° |
| 2026-04-30 01:54 | -17.22725 | -67.08811 | 28118 ft | 435 kts | 295° |
| 2026-04-30 01:55 | -17.20160 | -67.14555 | 28116 ft | 436 kts | 295° |
| 2026-04-30 01:55 | -17.17595 | -67.20294 | 28110 ft | 435 kts | 295° |
| 2026-04-30 01:56 | -17.15032 | -67.26023 | 28107 ft | 435 kts | 295° |
| 2026-04-30 01:56 | -17.12475 | -67.31735 | 28104 ft | 434 kts | 295° |
| 2026-04-30 01:57 | -17.09917 | -67.37443 | 28103 ft | 433 kts | 295° |
| 2026-04-30 01:57 | -17.07364 | -67.43133 | 28099 ft | 433 kts | 295° |
| 2026-04-30 01:58 | -17.04805 | -67.48833 | 28098 ft | 432 kts | 295° |
| 2026-04-30 01:58 | -17.02263 | -67.54490 | 28092 ft | 428 kts | 295° |
| 2026-04-30 01:59 | -16.99730 | -67.60122 | 28358 ft | 434 kts | 295° |
| 2026-04-30 01:59 | -16.98437 | -67.62995 | 28404 ft | 439 kts | 295° |
| 2026-04-30 02:00 | -16.95828 | -67.68787 | 28258 ft | 438 kts | 295° |
| 2026-04-30 02:00 | -16.94543 | -67.71638 | 27898 ft | 430 kts | 295° |
| 2026-04-30 02:00 | -16.93272 | -67.74458 | 27419 ft | 427 kts | 295° |
| 2026-04-30 02:00 | -16.92011 | -67.77255 | 26967 ft | 424 kts | 295° |
| 2026-04-30 02:01 | -16.90761 | -67.80025 | 26486 ft | 422 kts | 296° |
| 2026-04-30 02:01 | -16.89509 | -67.82798 | 26000 ft | 420 kts | 296° |
| 2026-04-30 02:01 | -16.88266 | -67.85551 | 25512 ft | 418 kts | 296° |
| 2026-04-30 02:01 | -16.87027 | -67.88291 | 25003 ft | 416 kts | 296° |
| 2026-04-30 02:02 | -16.85796 | -67.91015 | 24541 ft | 414 kts | 296° |
| 2026-04-30 02:02 | -16.84570 | -67.93726 | 24068 ft | 411 kts | 296° |
| 2026-04-30 02:02 | -16.83353 | -67.96417 | 23592 ft | 409 kts | 295° |
| 2026-04-30 02:02 | -16.82139 | -67.99096 | 23124 ft | 407 kts | 296° |
| 2026-04-30 02:03 | -16.80944 | -68.01736 | 22657 ft | 405 kts | 295° |
| 2026-04-30 02:03 | -16.79745 | -68.04385 | 22179 ft | 403 kts | 295° |
| 2026-04-30 02:03 | -16.78546 | -68.07031 | 21697 ft | 401 kts | 295° |
| 2026-04-30 02:03 | -16.77364 | -68.09649 | 21218 ft | 399 kts | 295° |
| 2026-04-30 02:04 | -16.76175 | -68.12277 | 20736 ft | 397 kts | 295° |
| 2026-04-30 02:04 | -16.74999 | -68.14873 | 20262 ft | 395 kts | 296° |
| 2026-04-30 02:04 | -16.73833 | -68.17442 | 19782 ft | 386 kts | 296° |
| 2026-04-30 02:04 | -16.72694 | -68.19948 | 19305 ft | 378 kts | 296° |
| 2026-04-30 02:05 | -16.71580 | -68.22400 | 18830 ft | 371 kts | 296° |
| 2026-04-30 02:05 | -16.70480 | -68.24817 | 18351 ft | 365 kts | 296° |
| 2026-04-30 02:05 | -16.69413 | -68.27161 | 17883 ft | 359 kts | 296° |
| 2026-04-30 02:05 | -16.68336 | -68.29515 | 17538 ft | 350 kts | 296° |
| 2026-04-30 02:06 | -16.67317 | -68.31756 | 17367 ft | 336 kts | 296° |
| 2026-04-30 02:06 | -16.66329 | -68.33927 | 17203 ft | 323 kts | 296° |
| 2026-04-30 02:06 | -16.65395 | -68.35978 | 17045 ft | 312 kts | 296° |
| 2026-04-30 02:06 | -16.64219 | -68.37853 | 16823 ft | 301 kts | 316° |
| 2026-04-30 02:07 | -16.62542 | -68.38990 | 16653 ft | 288 kts | 341° |
| 2026-04-30 02:07 | -16.60598 | -68.39155 | 16467 ft | 278 kts | 5° |
| 2026-04-30 02:07 | -16.58690 | -68.39003 | 16270 ft | 269 kts | 4° |
| 2026-04-30 02:07 | -16.56875 | -68.38854 | 16102 ft | 255 kts | 5° |
| 2026-04-30 02:08 | -16.55145 | -68.38711 | 15930 ft | 245 kts | 5° |
| 2026-04-30 02:08 | -16.53474 | -68.38509 | 15740 ft | 238 kts | 18° |
| 2026-04-30 02:08 | -16.52141 | -68.37639 | 15674 ft | 225 kts | 48° |
| 2026-04-30 02:08 | -16.51360 | -68.36231 | 15538 ft | 223 kts | 70° |
| 2026-04-30 02:09 | -16.51070 | -68.34679 | 15326 ft | 220 kts | 84° |
| 2026-04-30 02:09 | -16.50966 | -68.33112 | 15098 ft | 215 kts | 86° |
| 2026-04-30 02:09 | -16.50955 | -68.31559 | 14871 ft | 210 kts | 90° |
| 2026-04-30 02:09 | -16.50994 | -68.30049 | 14651 ft | 208 kts | 91° |
| 2026-04-30 02:10 | -16.51039 | -68.28563 | 14441 ft | 199 kts | 91° |
| 2026-04-30 02:10 | -16.51083 | -68.27157 | 14225 ft | 191 kts | 91° |
| 2026-04-30 02:10 | -16.51126 | -68.25797 | 14027 ft | 190 kts | 91° |
| 2026-04-30 02:10 | -16.51170 | -68.24393 | 13826 ft | 191 kts | 91° |
| 2026-04-30 02:11 | -16.51202 | -68.23029 | 13655 ft | 191 kts | 91° |
| 2026-04-30 02:11 | -16.51244 | -68.21823 | 13449 ft | 189 kts | 90° |
| 2026-04-30 02:11 | -16.51291 | -68.20495 | 13323 ft | 177 kts | 91° |
| 2026-04-30 02:11 | -16.51328 | -68.19324 | 13322 ft | 144 kts | 92° |
| 2026-04-30 02:12 | -16.51359 | -68.18437 | 13322 ft | 95 kts | 92° |
| 2026-04-30 02:12 | -16.51378 | -68.17913 | 13322 ft | 59 kts | 91° |
| 2026-04-30 02:12 | -16.51391 | -68.17548 | 13322 ft | 38 kts | 92° |
| 2026-04-30 02:12 | -16.51392 | -68.17387 | 13322 ft | 9 kts | 66° |
| 2026-04-30 02:13 | -16.51357 | -68.17373 | 13321 ft | 4 kts | 6° |
| 2026-04-30 02:13 | -16.51337 | -68.17371 | 13321 ft | 3 kts | 6° |
| 2026-04-30 02:13 | -16.51310 | -68.17370 | 13321 ft | 5 kts | 347° |
| 2026-04-30 02:13 | -16.51283 | -68.17384 | 13321 ft | 5 kts | 321° |
| 2026-04-30 02:14 | -16.51253 | -68.17414 | 13321 ft | 7 kts | 315° |
| 2026-04-30 02:14 | -16.51217 | -68.17452 | 13321 ft | 4 kts | 314° |
| 2026-04-30 02:14 | -16.51193 | -68.17479 | 13321 ft | 6 kts | 312° |
| 2026-04-30 02:14 | -16.51163 | -68.17512 | 13321 ft | 5 kts | 312° |
| 2026-04-30 02:15 | -16.51138 | -68.17542 | 13321 ft | 7 kts | 312° |
| 2026-04-30 02:15 | -16.51114 | -68.17569 | 13321 ft | 6 kts | 312° |
| 2026-04-30 02:15 | -16.51088 | -68.17599 | 13321 ft | 4 kts | 311° |
| 2026-04-30 02:15 | -16.51069 | -68.17626 | 13321 ft | 6 kts | 309° |
| 2026-04-30 02:16 | -16.51035 | -68.17627 | 13321 ft | 6 kts | 25° |
| 2026-04-30 02:16 | -16.51012 | -68.17613 | 13321 ft | 2 kts | 29° |
| 2026-04-30 02:16 | -16.51010 | -68.17612 | 13321 ft | 0 kts | 29° |